Orbital elements of FENGYUN 1C DEB
| Launched | 9 May 1999 |
| Flight ended | – |
| Launch site | Taiyuan Space Center, PRC |
| Owner | People's Republic of China |
| NORAD ID | 41826 |
| Date fetched |
Epoch osculation |
Inc. [°] |
Ecc. | RA asc node [hr] |
Arg Peri. [°] |
Mean anom [°] |
Mean motion [rev/day] |
Abs. mag |
| Date fetched |
Epoch osculation |
Inc. [°] |
Ecc. | RA asc node [hr] |
Arg Peri. [°] |
Mean anom [°] |
Mean motion [rev/day] |
Abs. mag |
| 2026 May 09 17:57 | 2026 May 04 03:15:06 | 98.7169 | 0.00563 | 12.9293 | 170.1732 | 190.0562 | 14.24658 | – |
| 2026 May 08 17:57 | 2026 May 04 03:15:06 | 98.7169 | 0.00563 | 12.9293 | 170.1732 | 190.0562 | 14.24658 | – |
| 2026 May 07 17:58 | 2026 May 04 03:15:06 | 98.7169 | 0.00563 | 12.9293 | 170.1732 | 190.0562 | 14.24658 | – |
| 2026 May 06 17:57 | 2026 May 04 03:15:06 | 98.7169 | 0.00563 | 12.9293 | 170.1732 | 190.0562 | 14.24658 | – |
| 2026 May 05 17:57 | 2026 May 04 03:15:06 | 98.7169 | 0.00563 | 12.9293 | 170.1732 | 190.0562 | 14.24658 | – |
| 2026 May 04 17:57 | 2026 Apr 30 09:54:55 | 98.7178 | 0.00560 | 12.6829 | 180.7394 | 190.0562 | 14.24658 | – |
| 2026 May 03 17:57 | 2026 Apr 30 09:54:55 | 98.7178 | 0.00560 | 12.6829 | 180.7394 | 190.0562 | 14.24658 | – |
| 2026 May 02 17:57 | 2026 Apr 30 09:54:55 | 98.7178 | 0.00560 | 12.6829 | 180.7394 | 190.0562 | 14.24658 | – |
| 2026 May 01 17:56 | 2026 Apr 30 09:54:55 | 98.7178 | 0.00560 | 12.6829 | 180.7394 | 190.0562 | 14.24658 | – |
| 2026 Apr 30 17:56 | 2026 Apr 30 09:54:55 | 98.7178 | 0.00560 | 12.6829 | 180.7394 | 190.0562 | 14.24658 | – |
| 2026 Apr 29 17:57 | 2026 Apr 22 09:45:11 | 98.7186 | 0.00553 | 12.1530 | 203.4848 | 190.0562 | 14.24658 | – |
| 2026 Apr 28 17:56 | 2026 Apr 22 09:45:11 | 98.7186 | 0.00553 | 12.1530 | 203.4848 | 190.0562 | 14.24658 | – |
| 2026 Apr 27 17:58 | 2026 Apr 22 09:45:11 | 98.7186 | 0.00553 | 12.1530 | 203.4848 | 190.0562 | 14.24658 | – |
| 2026 Apr 26 17:58 | 2026 Apr 22 09:45:11 | 98.7186 | 0.00553 | 12.1530 | 203.4848 | 190.0562 | 14.24658 | – |
| 2026 Apr 25 17:58 | 2026 Apr 22 09:45:11 | 98.7186 | 0.00553 | 12.1530 | 203.4848 | 190.0562 | 14.24658 | – |
| 2026 Apr 24 17:59 | 2026 Apr 22 09:45:11 | 98.7186 | 0.00553 | 12.1530 | 203.4848 | 190.0562 | 14.24658 | – |
| 2026 Apr 23 17:57 | 2026 Apr 17 03:19:40 | 98.7189 | 0.00547 | 11.8042 | 218.6327 | 190.0562 | 14.24658 | – |
| 2026 Apr 22 17:57 | 2026 Apr 17 03:19:40 | 98.7189 | 0.00547 | 11.8042 | 218.6327 | 190.0562 | 14.24658 | – |
| 2026 Apr 21 17:57 | 2026 Apr 17 03:19:40 | 98.7189 | 0.00547 | 11.8042 | 218.6327 | 190.0562 | 14.24658 | – |
| 2026 Apr 20 17:57 | 2026 Apr 17 03:19:40 | 98.7189 | 0.00547 | 11.8042 | 218.6327 | 190.0562 | 14.24658 | – |
| 2026 Apr 19 17:58 | 2026 Apr 17 03:19:40 | 98.7189 | 0.00547 | 11.8042 | 218.6327 | 190.0562 | 14.24658 | – |
| 2026 Apr 18 17:56 | 2026 Apr 12 15:26:38 | 98.7194 | 0.00543 | 11.5067 | 231.6857 | 190.0562 | 14.24658 | – |
| 2026 Apr 16 17:57 | 2026 Apr 12 15:26:38 | 98.7194 | 0.00543 | 11.5067 | 231.6857 | 190.0562 | 14.24658 | – |
| 2026 Apr 14 17:57 | 2026 Apr 12 15:26:38 | 98.7194 | 0.00543 | 11.5067 | 231.6857 | 190.0562 | 14.24658 | – |
| 2026 Apr 13 17:57 | 2026 Apr 12 15:26:38 | 98.7194 | 0.00543 | 11.5067 | 231.6857 | 190.0562 | 14.24658 | – |
| 2026 Apr 12 17:57 | 2026 Apr 08 15:21:31 | 98.7190 | 0.00539 | 11.2417 | 243.3705 | 190.0562 | 14.24658 | – |